Time;durP1;ratioP1;P1;durP2;ratioP2;P2;SDS_P1;SDS_P2;PMS_P1;PMS_P2;Temp;Humidity;BMP_temperature;BMP_pressure;BME280_temperature;BME280_humidity;BME280_pressure;Samples;Min_cycle;Max_cycle;Signal;HPM_P1;HPM_P2
2023/12/06 00:00:21;;;;;;;2.70;1.93;;;5.10;1.00;;;;;;4892961;29;20561;-78
2023/12/06 00:02:50;;;;;;;0.80;0.40;;;5.10;1.00;;;;;;4895217;29;20488;-78
2023/12/06 00:05:18;;;;;;;1.37;0.50;;;5.10;1.00;;;;;;4895698;29;20464;-78
2023/12/06 00:07:46;;;;;;;1.57;1.43;;;5.10;1.00;;;;;;4890349;29;20500;-78
2023/12/06 00:10:16;;;;;;;0.70;0.40;;;5.10;1.00;;;;;;4890842;29;20517;-76
2023/12/06 00:12:44;;;;;;;4.00;1.30;;;5.00;1.00;;;;;;4887244;29;20532;-78
2023/12/06 00:15:12;;;;;;;3.30;2.43;;;5.10;1.00;;;;;;4895617;29;20461;-78
2023/12/06 00:17:39;;;;;;;0.70;0.30;;;5.10;1.00;;;;;;4893228;29;20465;-78
2023/12/06 00:20:09;;;;;;;1.20;0.50;;;5.10;1.00;;;;;;4893144;29;20443;-77
2023/12/06 00:22:37;;;;;;;1.20;0.60;;;5.00;1.00;;;;;;4895426;29;20449;-77
2023/12/06 00:25:06;;;;;;;1.20;0.80;;;5.10;1.00;;;;;;4894714;29;20539;-77
2023/12/06 00:27:35;;;;;;;0.60;0.20;;;5.10;1.00;;;;;;4894150;29;20488;-76
2023/12/06 00:30:04;;;;;;;0.70;0.57;;;5.10;1.00;;;;;;4890561;29;20476;-78
2023/12/06 00:32:32;;;;;;;1.00;0.60;;;5.10;1.00;;;;;;4904922;29;20586;-79
2023/12/06 00:34:59;;;;;;;0.70;0.50;;;5.20;1.00;;;;;;4907527;29;20449;-79
2023/12/06 00:37:27;;;;;;;2.23;1.83;;;5.10;1.00;;;;;;4891273;29;20465;-78
2023/12/06 00:39:55;;;;;;;0.60;0.10;;;5.00;1.00;;;;;;4886584;29;20961;-76
2023/12/06 00:42:23;;;;;;;0.90;0.63;;;5.00;1.00;;;;;;4892993;29;20482;-77
2023/12/06 00:44:52;;;;;;;0.90;0.40;;;5.00;1.00;;;;;;4889309;29;20872;-77
2023/12/06 00:47:20;;;;;;;0.83;0.30;;;5.00;1.00;;;;;;4896457;29;20575;-77
2023/12/06 00:49:48;;;;;;;0.60;0.10;;;5.00;1.00;;;;;;4889343;29;20489;-78
2023/12/06 00:52:16;;;;;;;1.50;1.10;;;5.00;1.00;;;;;;4888797;29;20458;-76
2023/12/06 00:54:45;;;;;;;0.90;0.70;;;5.10;1.00;;;;;;4885359;29;20496;-76
2023/12/06 00:57:14;;;;;;;2.43;1.83;;;;;;;;;;4895296;29;20548;-76
2023/12/06 00:59:42;;;;;;;0.60;0.10;;;5.10;1.00;;;;;;4890292;29;20533;-76
2023/12/06 01:02:11;;;;;;;0.70;0.10;;;5.20;1.00;;;;;;4903182;29;20453;-77
2023/12/06 01:04:39;;;;;;;0.80;0.67;;;5.10;1.00;;;;;;4892321;29;20492;-77
2023/12/06 01:07:07;;;;;;;0.60;0.30;;;5.10;1.00;;;;;;4886453;29;20495;-77
2023/12/06 01:09:35;;;;;;;1.97;0.93;;;7.20;1.00;;;;;;4891641;29;20461;-76
2023/12/06 01:12:03;;;;;;;0.60;0.10;;;5.10;1.00;;;;;;4896390;29;20457;-77
2023/12/06 01:14:31;;;;;;;1.30;1.03;;;5.10;1.00;;;;;;4891658;29;20509;-77
2023/12/06 01:16:59;;;;;;;0.60;0.20;;;5.20;1.00;;;;;;4888467;29;20477;-77
2023/12/06 01:19:28;;;;;;;0.60;0.10;;;5.20;1.00;;;;;;4888877;29;20454;-77
2023/12/06 01:21:56;;;;;;;0.60;0.20;;;5.20;1.00;;;;;;4888205;29;20849;-76
2023/12/06 01:24:24;;;;;;;0.60;0.10;;;5.20;1.00;;;;;;4888490;29;20457;-77
2023/12/06 01:26:52;;;;;;;1.30;0.97;;;5.20;1.00;;;;;;4889137;29;20473;-78
2023/12/06 01:29:19;;;;;;;0.60;0.13;;;5.20;1.00;;;;;;4888189;29;20517;-79
2023/12/06 01:31:47;;;;;;;0.60;0.20;;;5.20;1.00;;;;;;4879214;29;20465;-77
2023/12/06 01:34:15;;;;;;;1.20;0.87;;;5.20;1.00;;;;;;4886808;29;20548;-78
2023/12/06 01:36:44;;;;;;;1.23;1.13;;;5.30;1.00;;;;;;4888147;29;20481;-77
2023/12/06 01:39:12;;;;;;;0.90;0.30;;;5.20;1.00;;;;;;4888254;29;20452;-78
2023/12/06 01:41:40;;;;;;;0.60;0.10;;;5.20;1.00;;;;;;4887550;29;20541;-78
2023/12/06 01:44:08;;;;;;;0.60;0.20;;;5.30;1.00;;;;;;4887875;29;20489;-77
2023/12/06 01:46:38;;;;;;;0.60;0.20;;;5.20;1.00;;;;;;4881420;29;20577;-77
2023/12/06 01:49:08;;;;;;;0.80;0.50;;;5.20;1.00;;;;;;4885352;29;20909;-76
2023/12/06 01:51:36;;;;;;;0.80;0.40;;;5.20;1.00;;;;;;4891188;29;20462;-78
2023/12/06 01:54:05;;;;;;;0.70;0.20;;;5.20;1.00;;;;;;4891738;29;20948;-76
2023/12/06 01:56:33;;;;;;;0.70;0.23;;;5.20;1.00;;;;;;4891875;29;20541;-77
2023/12/06 01:59:01;;;;;;;0.80;0.50;;;5.20;1.00;;;;;;4899760;29;21015;-77
2023/12/06 02:01:29;;;;;;;0.70;0.10;;;5.20;1.00;;;;;;4881110;29;21041;-78
2023/12/06 02:03:57;;;;;;;0.70;0.10;;;5.20;1.00;;;;;;4886333;29;20486;-77
2023/12/06 02:06:27;;;;;;;0.70;0.10;;;5.30;1.00;;;;;;4880115;29;20475;-77
2023/12/06 02:08:56;;;;;;;0.70;0.10;;;5.30;1.00;;;;;;4887736;29;20500;-77
2023/12/06 02:11:25;;;;;;;0.70;0.10;;;5.40;1.00;;;;;;4896431;29;20481;-78
2023/12/06 02:13:54;;;;;;;0.70;0.10;;;5.40;1.00;;;;;;4886660;29;20497;-77
2023/12/06 02:16:22;;;;;;;1.50;1.40;;;5.30;1.00;;;;;;4894961;29;20470;-78
2023/12/06 02:18:50;;;;;;;0.70;0.10;;;5.30;1.00;;;;;;4888036;29;20489;-77
2023/12/06 02:21:18;;;;;;;0.70;0.30;;;5.30;1.00;;;;;;4888130;29;20454;-77
2023/12/06 02:23:47;;;;;;;0.70;0.17;;;5.20;1.00;;;;;;4887469;29;20462;-76
2023/12/06 02:26:16;;;;;;;0.70;0.10;;;5.30;1.00;;;;;;4886652;29;20510;-76
2023/12/06 02:28:44;;;;;;;0.70;0.20;;;5.40;1.00;;;;;;4890430;29;20553;-77
2023/12/06 02:31:12;;;;;;;0.70;0.10;;;5.40;1.00;;;;;;4895193;29;20457;-76
2023/12/06 02:33:40;;;;;;;0.70;0.10;;;5.40;1.00;;;;;;4884362;29;20546;-76
2023/12/06 02:36:11;;;;;;;0.70;0.40;;;5.40;1.00;;;;;;4882132;29;20851;-78
2023/12/06 02:38:40;;;;;;;2.50;1.30;;;5.40;1.00;;;;;;4889198;29;20466;-76
2023/12/06 02:41:10;;;;;;;1.47;0.70;;;5.40;1.00;;;;;;4879164;29;20977;-77
2023/12/06 02:43:40;;;;;;;2.00;0.90;;;5.40;1.00;;;;;;4886732;29;20449;-75
2023/12/06 02:46:08;;;;;;;0.70;0.10;;;5.30;1.00;;;;;;4884484;29;20469;-76
2023/12/06 02:48:36;;;;;;;0.70;0.20;;;5.30;1.00;;;;;;4880649;29;21031;-77
2023/12/06 02:51:05;;;;;;;0.90;0.80;;;5.30;1.00;;;;;;4886671;29;20480;-78
2023/12/06 02:53:32;;;;;;;1.87;0.77;;;5.30;1.00;;;;;;4887579;29;20525;-77
2023/12/06 02:56:01;;;;;;;3.40;1.33;;;;;;;;;;4910594;23;21024;-76
2023/12/06 02:58:29;;;;;;;0.70;0.10;;;5.30;1.00;;;;;;4862696;29;20517;-76
2023/12/06 03:00:58;;;;;;;0.70;0.10;;;5.30;1.00;;;;;;4861029;29;20482;-76
2023/12/06 03:03:26;;;;;;;0.70;0.17;;;5.30;1.00;;;;;;4860970;29;20449;-76
2023/12/06 03:05:54;;;;;;;0.70;0.10;;;5.30;1.00;;;;;;4860431;29;20490;-77
2023/12/06 03:08:21;;;;;;;0.70;0.20;;;5.40;1.00;;;;;;4843639;29;20498;-77
2023/12/06 03:10:49;;;;;;;0.70;0.10;;;5.40;1.00;;;;;;4845827;29;20452;-76
2023/12/06 03:13:17;;;;;;;0.80;0.33;;;5.50;1.00;;;;;;4842565;29;20527;-76
2023/12/06 03:15:45;;;;;;;0.80;0.50;;;5.50;1.00;;;;;;4850342;29;20488;-75
2023/12/06 03:18:15;;;;;;;0.70;0.10;;;5.60;1.00;;;;;;4861265;29;20499;-75
2023/12/06 03:20:43;;;;;;;0.70;0.20;;;5.60;1.00;;;;;;4857414;29;20448;-76
2023/12/06 03:23:12;;;;;;;0.70;0.10;;;5.60;1.00;;;;;;4846890;29;20452;-76
2023/12/06 03:25:39;;;;;;;0.70;0.20;;;5.70;1.00;;;;;;4846130;29;20515;-77
2023/12/06 03:28:07;;;;;;;0.70;0.20;;;5.70;1.00;;;;;;4847394;29;20467;-77
2023/12/06 03:30:35;;;;;;;0.80;0.37;;;5.80;1.00;;;;;;4846255;29;20539;-76
2023/12/06 03:33:04;;;;;;;0.80;0.33;;;5.80;1.00;;;;;;4846173;29;20456;-76
2023/12/06 03:35:33;;;;;;;0.70;0.10;;;5.80;1.00;;;;;;4848929;29;20538;-76
2023/12/06 03:38:01;;;;;;;0.70;0.10;;;5.90;1.00;;;;;;4848151;29;20503;-77
2023/12/06 03:40:29;;;;;;;9.70;9.27;;;5.80;1.00;;;;;;4847698;29;20449;-76
2023/12/06 03:42:57;;;;;;;0.70;0.10;;;5.80;1.00;;;;;;4845995;29;20899;-76
2023/12/06 03:45:26;;;;;;;0.70;0.10;;;;;;;;;;4846151;29;20457;-75
2023/12/06 03:47:53;;;;;;;0.70;0.23;;;5.80;1.00;;;;;;4847829;29;20524;-77
2023/12/06 03:50:21;;;;;;;0.80;0.40;;;5.80;1.00;;;;;;4848141;29;20487;-77
2023/12/06 03:52:51;;;;;;;0.60;0.10;;;5.80;1.00;;;;;;4848045;29;20466;-77
2023/12/06 03:55:19;;;;;;;0.80;0.10;;;5.80;1.00;;;;;;4845171;29;20515;-76
2023/12/06 03:57:47;;;;;;;0.80;0.10;;;5.70;1.00;;;;;;4844610;29;20495;-76
2023/12/06 04:00:16;;;;;;;1.00;0.60;;;5.70;1.00;;;;;;4845606;29;20452;-76
2023/12/06 04:02:44;;;;;;;0.80;0.10;;;5.80;1.00;;;;;;4846373;29;20520;-78
2023/12/06 04:05:13;;;;;;;0.80;0.10;;;5.80;1.00;;;;;;4849511;29;20558;-79
2023/12/06 04:07:42;;;;;;;0.80;0.10;;;5.80;1.00;;;;;;4848144;29;20559;-75
2023/12/06 04:10:12;;;;;;;0.73;0.20;;;5.90;1.00;;;;;;4849587;29;20487;-76
2023/12/06 04:12:40;;;;;;;1.07;0.43;;;5.80;1.00;;;;;;4849891;29;20519;-76
2023/12/06 04:15:09;;;;;;;0.70;0.10;;;5.80;1.00;;;;;;4850183;29;20481;-76
2023/12/06 04:17:37;;;;;;;0.70;0.10;;;5.80;1.00;;;;;;4847329;29;21013;-76
2023/12/06 04:20:06;;;;;;;1.77;0.83;;;5.90;1.00;;;;;;4845349;29;20863;-77
2023/12/06 04:22:34;;;;;;;0.70;0.20;;;5.90;1.00;;;;;;4843662;29;20531;-76
2023/12/06 04:25:02;;;;;;;0.70;0.10;;;5.90;1.00;;;;;;4844599;29;20559;-77
2023/12/06 04:27:31;;;;;;;1.23;1.13;;;5.80;1.00;;;;;;4844647;29;20510;-75
2023/12/06 04:29:59;;;;;;;0.70;0.20;;;5.90;1.00;;;;;;4845062;29;20491;-77
2023/12/06 04:32:27;;;;;;;0.70;0.10;;;5.80;1.00;;;;;;4844757;29;20829;-74
2023/12/06 04:34:56;;;;;;;0.80;0.33;;;5.80;1.00;;;;;;4844903;29;20451;-74
2023/12/06 04:37:25;;;;;;;0.80;0.40;;;;;;;;;;4844416;29;20524;-75
2023/12/06 04:39:53;;;;;;;0.70;0.10;;;5.80;1.00;;;;;;4844443;29;20519;-75
2023/12/06 04:42:21;;;;;;;0.70;0.40;;;5.80;1.00;;;;;;4844079;29;20452;-75
2023/12/06 04:44:50;;;;;;;0.80;0.30;;;5.70;1.00;;;;;;4844153;29;20495;-75
2023/12/06 04:47:18;;;;;;;0.70;0.10;;;5.70;1.00;;;;;;4844139;29;20487;-74
2023/12/06 04:49:47;;;;;;;0.80;0.63;;;;;;;;;;4843471;29;20519;-75
2023/12/06 04:52:15;;;;;;;4.20;3.03;;;;;;;;;;4844282;29;20459;-76
2023/12/06 04:54:43;;;;;;;0.80;0.43;;;5.60;1.00;;;;;;4844082;29;20820;-75
2023/12/06 04:57:11;;;;;;;0.90;0.40;;;5.60;1.00;;;;;;4843502;29;21013;-75
2023/12/06 04:59:39;;;;;;;0.80;0.43;;;5.50;1.00;;;;;;4843423;29;20539;-75
2023/12/06 05:02:08;;;;;;;3.90;0.47;;;5.50;1.00;;;;;;4843117;29;20509;-75
2023/12/06 05:04:36;;;;;;;1.83;1.17;;;5.50;1.00;;;;;;4842925;29;20456;-74
2023/12/06 05:07:04;;;;;;;1.07;0.97;;;5.60;1.00;;;;;;4842873;29;20986;-74
2023/12/06 05:09:32;;;;;;;1.33;1.23;;;5.60;1.00;;;;;;4845770;29;20511;-74
2023/12/06 05:12:00;;;;;;;0.93;0.83;;;5.60;1.00;;;;;;4837562;29;20504;-74
2023/12/06 05:14:28;;;;;;;0.90;0.73;;;5.60;1.00;;;;;;4845030;29;20448;-74
2023/12/06 05:16:56;;;;;;;3.27;0.57;;;5.60;1.00;;;;;;4844566;29;20524;-72
2023/12/06 05:19:26;;;;;;;0.80;0.40;;;5.60;1.00;;;;;;4845126;29;20480;-73
2023/12/06 05:21:54;;;;;;;0.80;0.50;;;5.60;1.00;;;;;;4844121;29;20479;-73
2023/12/06 05:24:22;;;;;;;1.50;1.30;;;5.60;1.00;;;;;;4844850;29;20484;-74
2023/12/06 05:26:50;;;;;;;1.07;0.97;;;5.60;1.00;;;;;;4844027;29;20499;-74
2023/12/06 05:29:18;;;;;;;1.03;0.67;;;5.60;1.00;;;;;;4844522;29;20466;-73
2023/12/06 05:31:46;;;;;;;0.70;0.20;;;5.60;1.00;;;;;;4845172;29;20482;-73
2023/12/06 05:34:14;;;;;;;0.93;0.93;;;;;;;;;;4841731;29;20468;-75
2023/12/06 05:36:44;;;;;;;4.37;3.03;;;5.60;1.00;;;;;;4842908;29;21035;-74
2023/12/06 05:39:12;;;;;;;1.03;0.93;;;5.50;1.00;;;;;;4843190;29;20471;-74
2023/12/06 05:41:40;;;;;;;1.20;0.80;;;5.50;1.00;;;;;;4843038;29;20531;-74
2023/12/06 05:44:08;;;;;;;1.50;0.37;;;;;;;;;;4842336;29;20505;-74
2023/12/06 05:46:36;;;;;;;1.20;1.03;;;5.30;1.00;;;;;;4843217;29;20579;-76
2023/12/06 05:49:04;;;;;;;0.70;0.30;;;5.30;1.00;;;;;;4842479;29;21024;-75
2023/12/06 05:51:32;;;;;;;2.10;0.60;;;5.40;1.00;;;;;;4842298;29;20902;-74
2023/12/06 05:54:01;;;;;;;4.20;1.90;;;5.30;1.00;;;;;;4842672;29;20444;-74
2023/12/06 05:56:29;;;;;;;1.83;1.47;;;5.20;1.00;;;;;;4834064;29;21026;-75
2023/12/06 05:58:57;;;;;;;3.37;1.90;;;5.20;1.00;;;;;;4843041;29;20467;-74
2023/12/06 06:01:25;;;;;;;1.20;0.83;;;5.20;1.00;;;;;;4849516;29;20479;-74
2023/12/06 06:03:53;;;;;;;1.67;0.87;;;5.20;1.00;;;;;;4857825;29;20452;-74
2023/12/06 06:06:21;;;;;;;1.77;0.80;;;5.30;1.00;;;;;;4852898;29;20469;-73
2023/12/06 06:08:49;;;;;;;0.70;0.30;;;5.30;1.00;;;;;;4841827;29;20479;-74
2023/12/06 06:11:18;;;;;;;1.63;0.70;;;5.30;1.00;;;;;;4843197;29;20492;-74
2023/12/06 06:13:46;;;;;;;1.43;1.23;;;5.30;1.00;;;;;;4842499;29;20452;-75
2023/12/06 06:16:16;;;;;;;2.30;1.00;;;5.20;1.00;;;;;;4842484;29;20452;-75
2023/12/06 06:18:44;;;;;;;1.40;0.93;;;5.20;1.00;;;;;;4843736;29;20452;-75
2023/12/06 06:21:12;;;;;;;3.57;1.97;;;5.10;1.00;;;;;;4840866;29;20471;-74
2023/12/06 06:23:40;;;;;;;0.70;0.40;;;5.10;99.90;;;;;;4842233;29;20487;-74
2023/12/06 06:26:09;;;;;;;2.20;1.63;;;5.10;99.90;;;;;;4843339;29;20455;-75
2023/12/06 06:28:38;;;;;;;2.50;1.73;;;5.20;99.90;;;;;;4842490;29;20471;-74
2023/12/06 06:31:06;;;;;;;1.10;0.40;;;5.20;99.90;;;;;;4842291;29;20517;-75
2023/12/06 06:33:34;;;;;;;0.90;0.73;;;5.20;99.90;;;;;;4843209;29;20456;-73
2023/12/06 06:36:02;;;;;;;0.60;0.10;;;5.20;99.90;;;;;;4842868;29;20467;-75
2023/12/06 06:38:31;;;;;;;0.60;0.10;;;5.20;99.90;;;;;;4842918;29;20543;-74
2023/12/06 06:40:59;;;;;;;2.00;0.70;;;5.20;99.90;;;;;;4843082;29;20480;-74
2023/12/06 06:43:27;;;;;;;0.60;0.10;;;;;;;;;;4843716;29;20456;-75
2023/12/06 06:45:57;;;;;;;0.80;0.73;;;5.00;99.90;;;;;;4836299;29;20460;-75
2023/12/06 06:48:25;;;;;;;0.60;0.10;;;5.00;99.90;;;;;;4843754;29;20455;-76
2023/12/06 06:50:53;;;;;;;0.60;0.10;;;5.00;99.90;;;;;;4843152;29;20492;-75
2023/12/06 06:53:21;;;;;;;0.60;0.30;;;4.90;99.90;;;;;;4842913;29;20516;-76
2023/12/06 06:55:49;;;;;;;0.70;0.50;;;4.90;99.90;;;;;;4843018;29;20459;-74
2023/12/06 06:58:17;;;;;;;0.87;0.60;;;;;;;;;;4836145;29;20492;-75
2023/12/06 07:00:45;;;;;;;2.90;2.70;;;4.90;99.90;;;;;;4841962;29;20495;-75
2023/12/06 07:03:15;;;;;;;0.70;0.40;;;4.90;99.90;;;;;;4842254;29;20547;-74
2023/12/06 07:05:43;;;;;;;5.50;2.10;;;4.70;99.90;;;;;;4842279;29;20892;-75
2023/12/06 07:08:11;;;;;;;0.80;0.40;;;;;;;;;;4841709;29;20543;-75
2023/12/06 07:10:40;;;;;;;1.27;1.17;;;4.60;99.90;;;;;;4841837;29;20574;-73
2023/12/06 07:13:08;;;;;;;0.60;0.10;;;;;;;;;;4834448;29;20456;-75
2023/12/06 07:15:36;;;;;;;0.67;0.33;;;4.60;99.90;;;;;;4838672;29;20540;-75
2023/12/06 07:18:04;;;;;;;1.10;0.83;;;;;;;;;;4841831;29;20459;-74
2023/12/06 07:20:35;;;;;;;0.80;0.53;;;4.60;99.90;;;;;;4842537;29;20447;-75
2023/12/06 07:23:13;;;;;;;0.60;0.10;;;4.60;99.90;;;;;;4841936;29;20495;-75
2023/12/06 07:25:42;;;;;;;1.37;0.63;;;4.60;99.90;;;;;;4837769;29;20491;-74
2023/12/06 07:28:09;;;;;;;1.30;0.77;;;4.70;99.90;;;;;;4832380;29;20551;-73
2023/12/06 07:30:38;;;;;;;1.33;0.50;;;4.70;99.90;;;;;;4832309;29;20991;-75
2023/12/06 07:33:07;;;;;;;2.50;1.07;;;;;;;;;;4846686;29;20459;-74
2023/12/06 07:35:37;;;;;;;1.37;0.90;;;4.50;99.90;;;;;;4841492;29;20521;-73
2023/12/06 07:38:08;;;;;;;2.53;1.70;;;4.50;99.90;;;;;;4844908;29;20470;-74
2023/12/06 07:40:36;;;;;;;0.60;0.10;;;4.40;99.90;;;;;;4835132;29;20937;-75
2023/12/06 07:43:04;;;;;;;0.70;0.60;;;4.40;99.90;;;;;;4834217;29;20454;-74
2023/12/06 07:45:32;;;;;;;4.00;1.60;;;4.40;99.90;;;;;;4841004;29;20598;-75
2023/12/06 07:48:00;;;;;;;11.23;3.20;;;4.30;99.90;;;;;;4841239;29;20478;-74
2023/12/06 07:50:28;;;;;;;0.60;0.20;;;4.30;99.90;;;;;;4839305;29;20479;-74
2023/12/06 07:52:58;;;;;;;3.33;1.03;;;4.30;99.90;;;;;;4839498;29;20456;-74
2023/12/06 07:55:26;;;;;;;3.30;0.43;;;4.30;99.90;;;;;;4840998;29;20512;-74
2023/12/06 07:57:55;;;;;;;1.40;1.30;;;4.40;99.90;;;;;;4840973;29;20488;-74
2023/12/06 08:00:23;;;;;;;1.33;0.53;;;;;;;;;;4839547;29;20460;-74
2023/12/06 08:02:52;;;;;;;1.70;1.60;;;4.40;99.90;;;;;;4840957;29;20476;-74
2023/12/06 08:05:20;;;;;;;3.10;1.90;;;4.40;99.90;;;;;;4835256;29;20460;-73
2023/12/06 08:07:49;;;;;;;3.60;3.27;;;4.30;99.90;;;;;;4839666;29;20525;-73
2023/12/06 08:10:22;;;;;;;0.60;0.20;;;4.30;99.90;;;;;;4840050;29;20504;-74
2023/12/06 08:12:53;;;;;;;0.60;0.20;;;4.20;99.90;;;;;;4841147;29;20899;-74
2023/12/06 08:15:22;;;;;;;0.60;0.10;;;4.30;99.90;;;;;;4840965;29;20485;-73
2023/12/06 08:17:51;;;;;;;0.60;0.10;;;;;;;;;;4840375;29;20488;-73
2023/12/06 08:20:19;;;;;;;3.90;1.80;;;4.50;99.90;;;;;;4840983;29;20484;-75
2023/12/06 08:22:47;;;;;;;2.70;1.10;;;4.50;99.90;;;;;;4840455;29;20467;-74
2023/12/06 08:25:15;;;;;;;0.60;0.10;;;4.50;99.90;;;;;;4843398;29;20448;-74
2023/12/06 08:27:44;;;;;;;1.20;1.10;;;4.50;99.90;;;;;;4843717;29;20472;-74
2023/12/06 08:30:13;;;;;;;0.90;0.33;;;4.50;99.90;;;;;;4836733;29;20452;-73
2023/12/06 08:32:41;;;;;;;0.60;0.10;;;;;;;;;;4837075;29;20578;-75
2023/12/06 08:35:09;;;;;;;0.60;0.20;;;4.50;99.90;;;;;;4844238;29;20823;-73
2023/12/06 08:37:37;;;;;;;0.60;0.10;;;4.50;99.90;;;;;;4838196;29;20544;-74
2023/12/06 08:40:08;;;;;;;0.60;0.10;;;4.60;99.90;;;;;;4845470;29;20452;-77
2023/12/06 08:42:37;;;;;;;0.80;0.57;;;;;;;;;;4845045;29;20464;-74
2023/12/06 08:45:08;;;;;;;1.33;1.23;;;4.60;99.90;;;;;;4841603;29;20460;-73
2023/12/06 08:47:36;;;;;;;0.80;0.30;;;4.60;99.90;;;;;;4839798;29;20845;-73
2023/12/06 08:50:05;;;;;;;1.37;1.27;;;4.40;99.90;;;;;;4831268;29;20468;-73
2023/12/06 08:52:34;;;;;;;0.60;0.10;;;4.40;99.90;;;;;;4857460;29;20496;-74
2023/12/06 08:55:03;;;;;;;0.60;0.13;;;4.50;99.90;;;;;;4857789;29;20936;-74
2023/12/06 08:57:31;;;;;;;0.67;0.27;;;4.50;99.90;;;;;;4857610;29;20486;-74
2023/12/06 08:59:59;;;;;;;0.60;0.10;;;;;;;;;;4842202;29;20481;-72
2023/12/06 09:02:29;;;;;;;0.60;0.10;;;4.50;99.90;;;;;;4837606;29;20471;-75
2023/12/06 09:04:57;;;;;;;0.60;0.10;;;4.60;99.90;;;;;;4834899;29;20480;-75
2023/12/06 09:07:25;;;;;;;1.23;0.73;;;4.60;99.90;;;;;;4839029;29;20510;-74
2023/12/06 09:09:54;;;;;;;0.83;0.30;;;4.60;99.90;;;;;;4828644;29;20460;-73
2023/12/06 09:12:22;;;;;;;0.60;0.10;;;4.60;99.90;;;;;;4839334;29;21030;-73
2023/12/06 09:14:50;;;;;;;4.47;2.47;;;4.60;99.90;;;;;;4841784;29;20467;-73
2023/12/06 09:17:18;;;;;;;1.40;1.30;;;4.60;99.90;;;;;;4844246;29;20551;-75
2023/12/06 09:19:48;;;;;;;2.73;2.53;;;4.60;99.90;;;;;;4847463;29;20467;-75
2023/12/06 09:22:17;;;;;;;0.60;0.20;;;4.60;99.90;;;;;;4840236;29;20452;-74
2023/12/06 09:24:48;;;;;;;2.50;2.30;;;4.70;99.90;;;;;;4838409;29;20463;-75
2023/12/06 09:27:16;;;;;;;0.80;0.53;;;4.70;99.90;;;;;;4844670;29;20479;-76
2023/12/06 09:29:46;;;;;;;2.10;1.23;;;;;;;;;;4841216;29;20472;-74
2023/12/06 09:32:14;;;;;;;0.80;0.50;;;;;;;;;;4843174;29;21112;-74
2023/12/06 09:34:42;;;;;;;5.73;1.17;;;4.60;99.90;;;;;;4847890;29;20598;-73
2023/12/06 09:37:17;;;;;;;0.63;0.37;;;4.50;99.90;;;;;;4841610;29;20475;-73
2023/12/06 09:39:45;;;;;;;0.90;0.40;;;4.60;99.90;;;;;;4845759;29;20570;-74
2023/12/06 09:42:13;;;;;;;1.53;1.43;;;4.60;99.90;;;;;;4835734;29;20448;-74
2023/12/06 09:44:42;;;;;;;3.53;1.17;;;4.50;99.90;;;;;;4843054;29;20504;-74
2023/12/06 09:47:11;;;;;;;0.60;0.10;;;4.50;99.90;;;;;;4841101;29;20975;-74
2023/12/06 09:49:39;;;;;;;0.60;0.20;;;4.60;99.90;;;;;;4835669;29;20455;-76
2023/12/06 09:52:11;;;;;;;0.60;0.10;;;4.70;99.90;;;;;;4840080;29;20547;-73
2023/12/06 09:54:43;;;;;;;1.07;0.30;;;4.70;99.90;;;;;;4830604;29;20539;-74
2023/12/06 09:57:12;;;;;;;3.00;1.77;;;4.70;99.90;;;;;;4841374;29;20487;-73
2023/12/06 09:59:40;;;;;;;0.60;0.30;;;4.60;99.90;;;;;;4839734;29;20553;-73
2023/12/06 10:02:08;;;;;;;4.83;1.80;;;4.70;99.90;;;;;;4841289;29;20444;-73
2023/12/06 10:04:36;;;;;;;6.73;3.67;;;4.70;99.90;;;;;;4842015;29;20551;-73
2023/12/06 10:07:04;;;;;;;2.60;2.40;;;4.70;99.90;;;;;;4839765;29;20499;-74
2023/12/06 10:09:32;;;;;;;0.70;0.50;;;4.70;99.90;;;;;;4841037;29;20495;-76
2023/12/06 10:12:10;;;;;;;3.90;1.07;;;4.70;99.90;;;;;;4841550;29;20623;-75
2023/12/06 10:14:38;;;;;;;1.00;0.90;;;4.80;99.90;;;;;;4840630;29;20521;-73
2023/12/06 10:17:09;;;;;;;0.67;0.30;;;4.60;99.90;;;;;;4840265;29;20474;-73
2023/12/06 10:19:37;;;;;;;2.47;2.33;;;4.70;99.90;;;;;;4840749;29;20444;-73
2023/12/06 10:22:06;;;;;;;0.60;0.10;;;4.70;99.90;;;;;;4841777;29;20452;-72
2023/12/06 10:24:41;;;;;;;0.70;0.43;;;4.80;99.90;;;;;;4842194;29;20452;-74
2023/12/06 10:27:12;;;;;;;4.40;1.53;;;4.70;99.90;;;;;;4839836;29;20478;-74
2023/12/06 10:29:40;;;;;;;0.60;0.10;;;4.70;99.90;;;;;;4841594;29;20452;-73
2023/12/06 10:32:09;;;;;;;0.60;0.10;;;4.80;99.90;;;;;;4841516;29;20468;-73
2023/12/06 10:34:38;;;;;;;3.17;2.97;;;4.70;99.90;;;;;;4842444;29;20452;-74
2023/12/06 10:37:09;;;;;;;8.80;4.67;;;4.70;99.90;;;;;;4841674;29;20535;-73
2023/12/06 10:39:38;;;;;;;2.47;2.30;;;4.70;99.90;;;;;;4841456;29;20459;-74
2023/12/06 10:42:14;;;;;;;2.20;1.43;;;4.70;99.90;;;;;;4840378;29;20863;-73
2023/12/06 10:44:42;;;;;;;0.90;0.70;;;6.70;99.90;;;;;;4842307;29;20455;-73
2023/12/06 10:47:12;;;;;;;1.47;1.37;;;4.80;99.90;;;;;;4839939;29;20480;-75
2023/12/06 10:49:41;;;;;;;10.83;2.90;;;4.80;99.90;;;;;;4839959;29;20534;-73
2023/12/06 10:52:10;;;;;;;1.43;0.67;;;4.80;99.90;;;;;;4841078;29;20887;-74
2023/12/06 10:54:42;;;;;;;0.60;0.20;;;4.90;99.90;;;;;;4841469;29;20528;-73
2023/12/06 10:57:12;;;;;;;3.33;2.63;;;4.80;99.90;;;;;;4841114;29;20480;-76
2023/12/06 10:59:43;;;;;;;4.23;1.17;;;4.90;99.90;;;;;;4841539;29;20467;-74
2023/12/06 11:02:12;;;;;;;6.13;4.63;;;4.80;99.90;;;;;;4840446;29;20452;-73
2023/12/06 11:04:44;;;;;;;3.03;2.73;;;4.80;99.90;;;;;;4841157;29;20475;-74
2023/12/06 11:07:25;;;;;;;0.60;0.10;;;4.70;99.90;;;;;;4841439;29;20526;-74
2023/12/06 11:10:05;;;;;;;0.60;0.10;;;4.80;99.90;;;;;;4841697;29;20540;-75
2023/12/06 11:12:46;;;;;;;1.67;1.57;;;4.80;99.90;;;;;;4841725;29;20545;-73
2023/12/06 11:15:27;;;;;;;1.33;1.03;;;4.90;99.90;;;;;;4842145;29;20565;-74
2023/12/06 11:18:04;;;;;;;0.67;0.30;;;4.90;99.90;;;;;;4841525;29;21091;-74
2023/12/06 11:20:32;;;;;;;4.30;2.30;;;5.00;99.90;;;;;;4835425;29;20473;-74
2023/12/06 11:23:00;;;;;;;5.63;5.03;;;4.90;99.90;;;;;;4838795;29;20502;-74
2023/12/06 11:25:28;;;;;;;5.93;2.90;;;4.90;99.90;;;;;;4839043;29;20461;-74
2023/12/06 11:27:58;;;;;;;5.47;2.53;;;4.80;99.90;;;;;;4838222;29;20501;-74
2023/12/06 11:30:27;;;;;;;1.80;1.30;;;4.80;99.90;;;;;;4841498;29;20463;-76
2023/12/06 11:32:58;;;;;;;9.73;2.50;;;4.80;99.90;;;;;;4841074;29;20483;-74
2023/12/06 11:35:26;;;;;;;4.40;2.07;;;4.70;99.90;;;;;;4840212;29;20475;-75
2023/12/06 11:37:55;;;;;;;1.13;1.03;;;4.70;99.90;;;;;;4841062;29;20480;-75
2023/12/06 11:40:25;;;;;;;0.60;0.10;;;4.80;99.90;;;;;;4844912;29;20460;-73
2023/12/06 11:42:57;;;;;;;1.57;1.47;;;4.90;99.90;;;;;;4855988;29;20444;-76
2023/12/06 11:45:26;;;;;;;1.17;0.83;;;4.80;99.90;;;;;;4845661;29;20448;-75
2023/12/06 11:47:54;;;;;;;1.53;1.23;;;4.80;99.90;;;;;;4846918;29;20468;-74
2023/12/06 11:50:24;;;;;;;2.30;1.30;;;4.80;99.90;;;;;;4835403;29;20460;-74
2023/12/06 11:52:54;;;;;;;4.97;3.33;;;4.80;99.90;;;;;;4839616;29;20472;-75
2023/12/06 11:55:24;;;;;;;2.40;2.27;;;4.70;99.90;;;;;;4838560;29;20483;-73
2023/12/06 11:58:07;;;;;;;4.70;3.70;;;4.70;99.90;;;;;;4841467;29;20490;-75
2023/12/06 12:00:39;;;;;;;0.77;0.40;;;4.70;99.90;;;;;;4844108;29;20527;-74
2023/12/06 12:03:07;;;;;;;5.03;1.23;;;4.60;99.90;;;;;;4845450;29;20460;-73
2023/12/06 12:05:35;;;;;;;5.40;4.13;;;4.70;99.90;;;;;;4848421;29;20996;-74
2023/12/06 12:08:04;;;;;;;4.50;4.10;;;4.80;99.90;;;;;;4844642;29;20491;-74
2023/12/06 12:10:32;;;;;;;0.60;0.10;;;4.80;99.90;;;;;;4844879;29;20544;-74
2023/12/06 12:13:00;;;;;;;1.70;0.57;;;4.80;99.90;;;;;;4845445;29;20490;-74
2023/12/06 12:15:30;;;;;;;0.60;0.17;;;4.80;99.90;;;;;;4845462;29;20484;-75
2023/12/06 12:17:58;;;;;;;2.40;1.43;;;4.90;99.90;;;;;;4846104;29;20467;-74
2023/12/06 12:20:26;;;;;;;2.80;2.50;;;4.90;99.90;;;;;;4847429;29;20476;-73
2023/12/06 12:22:55;;;;;;;1.80;1.53;;;5.00;99.90;;;;;;4851046;29;20452;-74
2023/12/06 12:25:24;;;;;;;1.47;1.37;;;5.00;99.90;;;;;;4851664;29;20825;-73
2023/12/06 12:27:53;;;;;;;4.50;4.20;;;5.00;99.90;;;;;;4853444;29;20503;-75
2023/12/06 12:30:21;;;;;;;5.50;3.30;;;4.90;99.90;;;;;;4850245;29;20468;-74
2023/12/06 12:32:53;;;;;;;3.57;1.83;;;5.00;99.90;;;;;;4847977;29;20473;-73
2023/12/06 12:35:21;;;;;;;1.83;1.40;;;4.90;99.90;;;;;;4850308;29;20487;-74
2023/12/06 12:37:50;;;;;;;0.80;0.57;;;4.90;99.90;;;;;;4841412;29;20548;-74
2023/12/06 12:40:19;;;;;;;0.60;0.20;;;5.00;99.90;;;;;;4849470;29;20493;-76
2023/12/06 12:42:47;;;;;;;6.53;3.10;;;5.00;99.90;;;;;;4851747;29;20840;-73
2023/12/06 12:45:15;;;;;;;1.50;1.40;;;5.00;99.90;;;;;;4849396;29;20495;-73
2023/12/06 12:47:43;;;;;;;1.57;0.43;;;5.00;99.90;;;;;;4844508;29;20471;-73
2023/12/06 12:50:18;;;;;;;0.60;0.10;;;4.90;99.90;;;;;;4850371;29;20471;-73
2023/12/06 12:52:47;;;;;;;3.27;1.43;;;;;;;;;;4847835;29;20463;-74
2023/12/06 12:55:16;;;;;;;2.70;1.20;;;4.90;99.90;;;;;;4843407;29;20909;-73
2023/12/06 12:57:46;;;;;;;1.43;1.07;;;4.90;99.90;;;;;;4844322;29;20479;-74
2023/12/06 13:00:19;;;;;;;3.23;2.90;;;4.90;99.90;;;;;;4849196;29;20524;-73
2023/12/06 13:02:48;;;;;;;2.10;1.90;;;4.90;99.90;;;;;;4841971;29;20456;-74
2023/12/06 13:05:19;;;;;;;5.57;3.73;;;5.00;99.90;;;;;;4843674;29;20456;-76
2023/12/06 13:07:51;;;;;;;1.90;0.93;;;5.00;99.90;;;;;;4843728;29;21038;-74
2023/12/06 13:10:19;;;;;;;0.70;0.47;;;5.00;99.90;;;;;;4841860;29;20909;-75
2023/12/06 13:12:47;;;;;;;4.50;1.73;;;5.00;99.90;;;;;;4836365;29;20491;-74
2023/12/06 13:15:16;;;;;;;5.53;5.00;;;5.10;99.90;;;;;;4834347;29;20575;-74